createdAt,value
2023-01-15T00:00:27.817Z,9.45
2023-01-15T00:03:17.359Z,8.38
2023-01-15T00:05:45.597Z,9.88
2023-01-15T00:08:13.839Z,8.80
2023-01-15T00:10:41.747Z,10.70
2023-01-15T00:13:14.376Z,9.05
2023-01-15T00:18:10.478Z,7.75
2023-01-15T00:20:39.735Z,7.70
2023-01-15T00:23:27.895Z,7.25
2023-01-15T00:26:14.871Z,6.20
2023-01-15T00:28:43.238Z,5.55
2023-01-15T00:31:11.213Z,5.70
2023-01-15T00:33:39.467Z,5.78
2023-01-15T00:36:09.331Z,5.40
2023-01-15T00:38:37.600Z,5.78
2023-01-15T00:41:05.717Z,5.78
2023-01-15T00:43:33.911Z,6.22
2023-01-15T00:46:01.864Z,7.32
2023-01-15T00:48:30.066Z,6.65
2023-01-15T00:50:57.995Z,6.93
2023-01-15T00:53:27.542Z,6.38
2023-01-15T00:55:55.597Z,7.35
2023-01-15T00:58:23.947Z,6.75
2023-01-15T01:00:54.573Z,6.50
2023-01-15T01:03:22.936Z,6.40
2023-01-15T01:05:51.274Z,8.05
2023-01-15T01:08:19.823Z,8.32
2023-01-15T01:10:49.083Z,7.45
2023-01-15T01:13:17.457Z,8.98
2023-01-15T01:15:45.443Z,8.43
2023-01-15T01:18:13.679Z,8.25
2023-01-15T01:20:41.672Z,8.02
2023-01-15T01:23:09.849Z,7.57
2023-01-15T01:25:41.997Z,7.05
2023-01-15T01:28:11.773Z,8.10
2023-01-15T01:30:39.839Z,7.68
2023-01-15T01:33:08.311Z,7.70
2023-01-15T01:35:36.400Z,8.48
2023-01-15T01:38:04.596Z,8.07
2023-01-15T01:40:32.524Z,8.73
2023-01-15T01:43:00.774Z,7.13
2023-01-15T01:45:32.894Z,6.88
2023-01-15T01:48:03.249Z,7.18
2023-01-15T01:50:32.757Z,3.83
2023-01-15T01:53:07.044Z,4.40
2023-01-15T01:55:36.137Z,1.80
2023-01-15T01:58:06.654Z,1.90
2023-01-15T02:06:13.189Z,1.60
2023-01-15T02:08:41.394Z,1.45
2023-01-15T02:11:14.112Z,1.27
2023-01-15T02:13:45.250Z,2.47
2023-01-15T02:16:18.936Z,2.83
2023-01-15T02:18:50.849Z,2.90
2023-01-15T02:21:25.322Z,3.05
2023-01-15T02:24:11.953Z,3.63
2023-01-15T02:27:05.601Z,2.90
2023-01-15T02:29:42.645Z,3.53
2023-01-15T02:32:15.139Z,2.55
2023-01-15T02:34:47.935Z,2.47
2023-01-15T02:37:20.090Z,2.90
2023-01-15T02:39:49.297Z,2.95
2023-01-15T02:42:19.933Z,3.22
2023-01-15T02:44:52.313Z,3.38
2023-01-15T02:47:26.511Z,2.88
2023-01-15T02:49:57.763Z,2.38
2023-01-15T02:52:28.361Z,1.80
2023-01-15T02:55:00.221Z,2.40
2023-01-15T02:57:31.700Z,2.00
2023-01-15T03:00:06.366Z,1.95
2023-01-15T03:02:37.881Z,1.60
2023-01-15T03:05:10.422Z,1.88
2023-01-15T03:07:42.666Z,1.73
2023-01-15T03:10:11.919Z,1.50
2023-01-15T03:12:59.678Z,1.65
2023-01-15T03:15:42.989Z,2.08
2023-01-15T03:18:12.989Z,1.50
2023-01-15T03:20:43.344Z,1.38
2023-01-15T03:23:12.697Z,2.03
2023-01-15T03:25:44.984Z,1.98
2023-01-15T03:28:15.707Z,1.50
2023-01-15T03:30:43.926Z,1.60
2023-01-15T03:33:12.081Z,1.83
2023-01-15T03:35:45.907Z,2.05
2023-01-15T03:38:20.021Z,2.10
2023-01-15T03:40:53.976Z,1.50
2023-01-15T03:43:43.882Z,1.40
2023-01-15T03:46:28.215Z,1.50
2023-01-15T03:49:01.477Z,1.40
2023-01-15T03:51:36.931Z,1.60
2023-01-15T03:54:07.957Z,1.63
2023-01-15T03:56:44.550Z,1.65
2023-01-15T03:59:18.008Z,1.67
2023-01-15T04:01:47.051Z,1.63
2023-01-15T04:04:16.091Z,1.60
2023-01-15T04:06:44.912Z,1.55
2023-01-15T04:09:14.292Z,1.70
2023-01-15T04:11:42.475Z,2.08
2023-01-15T04:14:15.011Z,1.85
2023-01-15T04:16:43.190Z,1.70
2023-01-15T04:19:11.151Z,1.58
2023-01-15T04:21:39.325Z,1.75
2023-01-15T04:24:07.955Z,1.70
2023-01-15T04:26:36.138Z,1.30
2023-01-15T04:29:04.184Z,1.20
2023-01-15T04:31:35.888Z,1.63
2023-01-15T04:34:04.139Z,1.57
2023-01-15T04:36:35.339Z,1.52
2023-01-15T04:39:03.624Z,1.30
2023-01-15T04:41:49.506Z,1.83
2023-01-15T04:44:17.539Z,1.55
2023-01-15T04:46:47.756Z,1.65
2023-01-15T04:49:17.325Z,1.80
2023-01-15T04:51:46.076Z,2.30
2023-01-15T04:54:16.222Z,2.30
2023-01-15T04:56:45.665Z,2.45
2023-01-15T04:59:13.737Z,1.50
2023-01-15T05:01:51.297Z,1.88
2023-01-15T05:04:27.808Z,1.77
2023-01-15T05:06:56.160Z,1.65
2023-01-15T05:09:24.131Z,1.80
2023-01-15T05:11:52.346Z,2.10
2023-01-15T05:14:20.321Z,2.05
2023-01-15T05:16:48.580Z,1.40
2023-01-15T05:19:16.554Z,1.30
2023-01-15T05:21:46.483Z,1.13
2023-01-15T05:24:16.835Z,1.50
2023-01-15T05:26:45.348Z,1.50
2023-01-15T05:29:14.021Z,1.17
2023-01-15T05:31:45.001Z,1.58
2023-01-15T05:34:13.460Z,1.50
2023-01-15T05:36:42.187Z,1.70
2023-01-15T05:39:11.768Z,1.35
2023-01-15T05:41:52.814Z,1.98
2023-01-15T05:44:23.220Z,1.92
2023-01-15T05:46:52.943Z,2.22
2023-01-15T05:49:22.567Z,2.53
2023-01-15T05:51:51.165Z,1.75
2023-01-15T05:54:21.908Z,2.00
2023-01-15T05:56:50.321Z,1.92
2023-01-15T05:59:18.886Z,1.88
2023-01-15T06:01:47.428Z,1.60
2023-01-15T06:04:15.945Z,1.98
2023-01-15T06:06:44.529Z,2.30
2023-01-15T06:09:12.615Z,2.40
2023-01-15T06:11:46.617Z,3.15
2023-01-15T06:14:14.568Z,3.03
2023-01-15T06:16:42.885Z,2.45
2023-01-15T06:19:12.371Z,3.05
2023-01-15T06:21:41.344Z,2.72
2023-01-15T06:24:09.848Z,3.20
2023-01-15T06:26:39.252Z,2.55
2023-01-15T06:29:08.606Z,2.80
2023-01-15T06:31:36.859Z,3.75
2023-01-15T06:34:05.619Z,3.42
2023-01-15T06:36:42.921Z,3.25
2023-01-15T06:39:14.973Z,2.60
2023-01-15T06:42:01.105Z,2.78
2023-01-15T06:44:47.810Z,2.20
2023-01-15T06:47:22.260Z,3.40
2023-01-15T06:49:51.509Z,3.53
2023-01-15T06:52:19.726Z,9.45
2023-01-15T06:54:47.728Z,6.15
2023-01-15T06:57:16.159Z,2.38
2023-01-15T06:59:45.500Z,2.78
2023-01-15T07:02:14.049Z,2.15
2023-01-15T07:04:42.068Z,2.00
2023-01-15T07:07:10.236Z,2.00
2023-01-15T07:09:38.776Z,2.10
2023-01-15T07:12:07.346Z,2.50
2023-01-15T07:14:35.261Z,2.13
2023-01-15T07:17:05.169Z,2.72
2023-01-15T07:19:33.090Z,3.13
2023-01-15T07:22:01.363Z,3.85
2023-01-15T07:24:29.305Z,3.55
2023-01-15T07:26:57.548Z,3.13
2023-01-15T07:29:31.762Z,2.90
2023-01-15T07:32:00.317Z,2.47
2023-01-15T07:34:29.568Z,2.90
2023-01-15T07:36:57.751Z,3.55
2023-01-15T07:39:25.793Z,3.03
2023-01-15T07:42:11.826Z,3.13
2023-01-15T07:45:01.625Z,2.78
2023-01-15T07:47:47.220Z,3.20
2023-01-15T07:50:18.383Z,3.63
2023-01-15T07:52:46.658Z,6.30
2023-01-15T07:55:14.881Z,6.97
2023-01-15T07:57:43.835Z,7.78
2023-01-15T08:00:14.029Z,6.00
2023-01-15T08:02:42.564Z,15.38
2023-01-15T08:05:11.624Z,30.88
2023-01-15T08:07:42.086Z,11.23
2023-01-15T08:10:11.494Z,7.03
2023-01-15T08:12:57.469Z,7.03
2023-01-15T08:15:25.854Z,6.63
2023-01-15T08:17:54.329Z,6.32
2023-01-15T08:20:23.480Z,5.35
2023-01-15T08:22:53.461Z,5.07
2023-01-15T08:25:22.987Z,4.63
2023-01-15T08:27:51.720Z,4.95
2023-01-15T08:30:22.080Z,4.53
2023-01-15T08:32:50.397Z,4.35
2023-01-15T08:35:18.552Z,3.97
2023-01-15T08:37:46.771Z,4.30
2023-01-15T08:40:16.157Z,3.60
2023-01-15T08:42:44.362Z,3.72
2023-01-15T08:45:12.854Z,3.65
2023-01-15T08:47:41.062Z,3.60
2023-01-15T08:50:10.740Z,6.70
2023-01-15T08:52:39.307Z,5.38
2023-01-15T08:55:08.465Z,4.43
2023-01-15T08:57:38.603Z,4.43
2023-01-15T09:00:08.563Z,8.05
2023-01-15T09:02:36.829Z,6.05
2023-01-15T09:05:05.259Z,6.57
2023-01-15T09:07:35.228Z,6.03
2023-01-15T09:10:04.336Z,12.10
2023-01-15T09:12:32.754Z,8.50
2023-01-15T09:15:03.392Z,5.90
2023-01-15T09:17:32.812Z,7.10
2023-01-15T09:20:01.093Z,5.43
2023-01-15T09:22:30.910Z,11.95
2023-01-15T09:24:59.314Z,8.85
2023-01-15T09:27:28.251Z,7.40
2023-01-15T09:29:56.620Z,6.82
2023-01-15T09:32:26.303Z,6.30
2023-01-15T09:34:54.231Z,7.15
2023-01-15T09:37:22.415Z,7.65
2023-01-15T09:39:54.528Z,7.85
2023-01-15T09:42:35.614Z,9.63
2023-01-15T09:45:26.018Z,9.13
2023-01-15T09:48:14.593Z,10.82
2023-01-15T09:50:50.687Z,5.63
2023-01-15T09:53:32.146Z,4.65
2023-01-15T09:56:01.974Z,4.60
2023-01-15T09:58:34.819Z,5.63
2023-01-15T10:01:03.156Z,8.13
2023-01-15T10:03:37.605Z,7.03
2023-01-15T10:06:11.537Z,6.22
2023-01-15T10:08:43.546Z,6.22
2023-01-15T10:11:50.327Z,5.07
2023-01-15T10:14:39.151Z,3.75
2023-01-15T10:17:16.937Z,2.85
2023-01-15T10:19:46.709Z,2.63
2023-01-15T10:22:21.195Z,4.90
2023-01-15T10:24:54.850Z,3.28
2023-01-15T10:27:23.882Z,2.50
2023-01-15T10:29:54.996Z,2.15
2023-01-15T10:32:33.552Z,2.63
2023-01-15T10:35:14.149Z,2.50
2023-01-15T10:37:46.372Z,1.90
2023-01-15T10:40:32.384Z,2.63
2023-01-15T10:43:06.184Z,4.60
2023-01-15T10:45:38.071Z,6.47
2023-01-15T10:48:12.366Z,2.10
2023-01-15T10:50:42.789Z,1.85
2023-01-15T10:53:20.487Z,1.70
2023-01-15T10:55:51.833Z,5.57
2023-01-15T10:58:26.305Z,2.72
2023-01-15T11:00:58.587Z,2.30
2023-01-15T11:03:32.836Z,1.92
2023-01-15T11:06:02.642Z,1.80
2023-01-15T11:11:43.805Z,2.00
2023-01-15T11:14:30.362Z,1.90
2023-01-15T11:17:16.249Z,1.77
2023-01-15T11:19:45.180Z,2.08
2023-01-15T11:22:16.964Z,1.60
2023-01-15T11:24:49.909Z,2.38
2023-01-15T11:27:20.619Z,2.13
2023-01-15T11:29:53.185Z,2.28
2023-01-15T11:32:26.382Z,2.10
2023-01-15T11:34:55.487Z,1.27
2023-01-15T11:37:25.369Z,2.22
2023-01-15T11:39:54.461Z,1.90
2023-01-15T11:42:40.152Z,2.30
2023-01-15T11:45:34.578Z,2.28
2023-01-15T11:48:20.663Z,2.28
2023-01-15T11:50:52.284Z,3.08
2023-01-15T11:53:24.025Z,2.70
2023-01-15T11:55:59.596Z,3.37
2023-01-15T11:58:29.241Z,4.68
2023-01-15T12:00:57.964Z,3.65
2023-01-15T12:03:28.938Z,4.07
2023-01-15T12:05:59.598Z,2.50
2023-01-15T12:08:40.692Z,3.10
2023-01-15T12:11:26.453Z,2.92
2023-01-15T12:14:04.422Z,2.95
2023-01-15T12:16:36.952Z,3.30
2023-01-15T12:19:11.279Z,4.03
2023-01-15T12:21:54.198Z,2.90
2023-01-15T12:24:42.270Z,2.90
2023-01-15T12:27:24.139Z,3.45
2023-01-15T12:29:56.317Z,3.00
2023-01-15T12:32:25.763Z,2.67
2023-01-15T12:34:57.185Z,6.78
2023-01-15T12:37:28.922Z,6.53
2023-01-15T12:40:00.187Z,12.63
2023-01-15T12:42:46.536Z,12.15
2023-01-15T12:45:20.485Z,10.65
2023-01-15T12:47:51.093Z,4.72
2023-01-15T12:50:29.794Z,9.15
2023-01-15T12:53:04.913Z,3.53
2023-01-15T12:55:37.996Z,4.75
2023-01-15T12:58:12.662Z,4.72
2023-01-15T13:00:43.344Z,5.28
2023-01-15T13:03:18.733Z,5.78
2023-01-15T13:05:50.143Z,5.05
2023-01-15T13:08:22.202Z,3.22
2023-01-15T13:10:53.064Z,2.80
2023-01-15T13:13:24.716Z,2.80
2023-01-15T13:16:09.129Z,3.35
2023-01-15T13:18:47.417Z,3.60
2023-01-15T13:21:17.403Z,3.55
2023-01-15T13:24:11.104Z,3.95
2023-01-15T13:27:01.763Z,4.65
2023-01-15T13:29:39.073Z,5.28
2023-01-15T13:32:12.011Z,4.50
2023-01-15T13:34:45.018Z,4.32
2023-01-15T13:37:20.040Z,3.38
2023-01-15T13:39:50.371Z,4.05
2023-01-15T13:42:35.508Z,5.43
2023-01-15T13:45:09.893Z,5.68
2023-01-15T13:47:39.579Z,7.43
2023-01-15T13:50:15.359Z,8.13
2023-01-15T13:52:43.623Z,8.45
2023-01-15T13:55:17.182Z,6.82
2023-01-15T13:57:48.824Z,8.45
2023-01-15T14:00:30.641Z,6.72
2023-01-15T14:03:00.312Z,5.18
2023-01-15T14:05:32.021Z,5.35
2023-01-15T14:08:01.436Z,5.13
2023-01-15T14:10:38.619Z,5.30
2023-01-15T14:13:35.495Z,6.05
2023-01-15T14:16:12.298Z,8.23
2023-01-15T14:19:08.182Z,5.15
2023-01-15T14:21:42.939Z,8.60
2023-01-15T14:24:39.834Z,6.05
2023-01-15T14:27:13.327Z,6.82
2023-01-15T14:30:02.500Z,8.32
2023-01-15T14:32:44.708Z,8.57
2023-01-15T14:35:15.031Z,6.78
2023-01-15T14:37:51.288Z,6.25
2023-01-15T14:40:21.780Z,6.40
2023-01-15T14:43:04.925Z,5.63
2023-01-15T14:45:36.813Z,5.57
2023-01-15T14:48:06.678Z,4.85
2023-01-15T14:50:38.887Z,17.02
2023-01-15T14:53:18.985Z,16.13
2023-01-15T14:55:50.174Z,22.58
2023-01-15T14:58:31.053Z,17.23
2023-01-15T15:01:03.409Z,32.92
2023-01-15T15:03:35.947Z,26.75
2023-01-15T15:06:05.973Z,11.50
2023-01-15T15:08:35.413Z,8.77
2023-01-15T15:11:27.717Z,8.68
2023-01-15T15:13:58.136Z,10.07
2023-01-15T15:16:29.750Z,8.88
2023-01-15T15:19:01.621Z,8.20
2023-01-15T15:21:33.272Z,6.05
2023-01-15T15:24:06.493Z,6.60
2023-01-15T15:26:36.506Z,6.97
2023-01-15T15:29:07.835Z,5.82
2023-01-15T15:31:38.517Z,15.10
2023-01-15T15:34:07.574Z,8.52
2023-01-15T15:36:39.561Z,18.42
2023-01-15T15:39:18.597Z,6.18
2023-01-15T15:42:07.746Z,5.47
2023-01-15T15:44:59.268Z,4.32
2023-01-15T15:47:46.374Z,2.97
2023-01-15T15:50:22.303Z,4.00
2023-01-15T15:52:51.126Z,3.85
2023-01-15T15:55:20.059Z,5.35
2023-01-15T15:57:50.299Z,3.60
2023-01-15T16:00:20.538Z,3.30
2023-01-15T16:02:50.126Z,3.67
2023-01-15T16:05:23.941Z,4.50
2023-01-15T16:07:52.753Z,2.83
2023-01-15T16:10:25.181Z,3.25
2023-01-15T16:12:55.105Z,2.67
2023-01-15T16:15:26.951Z,2.90
2023-01-15T16:20:25.194Z,2.13
2023-01-15T16:22:57.342Z,1.90
2023-01-15T16:25:27.819Z,1.70
2023-01-15T16:27:56.184Z,1.48
2023-01-15T16:30:24.459Z,1.42
2023-01-15T16:32:54.298Z,1.42
2023-01-15T16:35:25.505Z,1.73
2023-01-15T16:37:56.164Z,1.95
2023-01-15T16:40:29.813Z,2.95
2023-01-15T16:43:07.787Z,2.65
2023-01-15T16:45:37.907Z,1.98
2023-01-15T16:48:27.422Z,2.20
2023-01-15T16:50:59.011Z,2.50
2023-01-15T16:53:33.506Z,1.95
2023-01-15T16:56:01.750Z,1.85
2023-01-15T16:58:35.534Z,2.13
2023-01-15T17:01:24.747Z,2.10
2023-01-15T17:03:53.453Z,2.00
2023-01-15T17:06:27.125Z,1.77
2023-01-15T17:08:56.829Z,2.60
2023-01-15T17:11:27.100Z,3.03
2023-01-15T17:14:09.844Z,5.60
2023-01-15T17:19:08.091Z,4.85
2023-01-15T17:21:38.778Z,6.65
2023-01-15T17:24:07.866Z,5.05
2023-01-15T17:26:36.262Z,4.63
2023-01-15T17:29:04.637Z,5.35
2023-01-15T17:31:34.142Z,3.88
2023-01-15T17:34:03.533Z,3.50
2023-01-15T17:36:32.849Z,2.60
2023-01-15T17:39:02.783Z,4.10
2023-01-15T17:41:30.758Z,3.90
2023-01-15T17:43:59.202Z,5.53
2023-01-15T17:46:27.133Z,5.10
2023-01-15T17:48:55.387Z,6.75
2023-01-15T17:51:23.472Z,6.88
2023-01-15T17:53:51.870Z,7.03
2023-01-15T17:56:38.698Z,8.70
2023-01-15T17:59:29.941Z,8.82
2023-01-15T18:02:15.768Z,10.73
2023-01-15T18:05:04.585Z,12.23
2023-01-15T18:07:36.235Z,8.57
2023-01-15T18:10:06.121Z,8.13
2023-01-15T18:12:35.565Z,6.38
2023-01-15T18:15:04.020Z,4.50
2023-01-15T18:17:33.068Z,3.97
2023-01-15T18:20:01.313Z,4.20
2023-01-15T18:22:30.191Z,5.03
2023-01-15T18:24:58.542Z,3.92
2023-01-15T18:27:30.044Z,3.97
2023-01-15T18:30:00.476Z,2.63
2023-01-15T18:32:29.432Z,2.45
2023-01-15T18:34:57.692Z,2.60
2023-01-15T18:37:25.751Z,2.83
2023-01-15T18:39:54.066Z,2.63
2023-01-15T18:42:43.964Z,2.10
2023-01-15T18:45:31.420Z,1.98
2023-01-15T18:48:02.176Z,6.22
2023-01-15T18:50:31.217Z,3.87
2023-01-15T18:52:59.208Z,3.45
2023-01-15T18:55:27.728Z,5.57
2023-01-15T18:57:56.169Z,2.97
2023-01-15T19:00:26.042Z,3.58
2023-01-15T19:02:54.054Z,3.38
2023-01-15T19:05:22.407Z,2.20
2023-01-15T19:07:50.392Z,2.90
2023-01-15T19:10:19.878Z,1.83
2023-01-15T19:12:48.161Z,2.33
2023-01-15T19:15:48.077Z,2.30
2023-01-15T19:18:35.290Z,6.13
2023-01-15T19:21:08.207Z,2.30
2023-01-15T19:23:36.134Z,1.90
2023-01-15T19:26:04.797Z,2.08
2023-01-15T19:28:33.381Z,2.75
2023-01-15T19:31:26.049Z,2.25
2023-01-15T19:34:13.237Z,2.20
2023-01-15T19:36:45.140Z,2.15
2023-01-15T19:39:13.222Z,2.03
2023-01-15T19:41:58.891Z,2.00
2023-01-15T19:44:44.552Z,2.10
2023-01-15T19:47:30.964Z,2.10
2023-01-15T19:50:17.926Z,2.58
2023-01-15T19:52:46.217Z,2.58
2023-01-15T19:55:15.178Z,2.65
2023-01-15T19:57:45.377Z,2.53
2023-01-15T20:00:15.744Z,2.80
2023-01-15T20:02:44.525Z,3.10
2023-01-15T20:05:15.592Z,2.55
2023-01-15T20:07:44.459Z,2.92
2023-01-15T20:10:15.657Z,2.60
2023-01-15T20:13:01.723Z,3.20
2023-01-15T20:15:31.123Z,2.78
2023-01-15T20:17:59.516Z,2.85
2023-01-15T20:20:28.874Z,2.50
2023-01-15T20:22:58.087Z,2.75
2023-01-15T20:25:26.891Z,2.90
2023-01-15T20:27:55.322Z,2.72
2023-01-15T20:30:24.495Z,3.63
2023-01-15T20:32:54.019Z,3.75
2023-01-15T20:35:24.177Z,3.15
2023-01-15T20:37:53.968Z,2.70
2023-01-15T20:40:23.514Z,3.40
2023-01-15T20:43:09.977Z,3.03
2023-01-15T20:45:38.165Z,5.13
2023-01-15T20:48:24.445Z,5.32
2023-01-15T20:51:01.512Z,4.05
2023-01-15T20:53:34.266Z,4.40
2023-01-15T20:56:13.202Z,5.20
2023-01-15T20:58:41.532Z,5.30
2023-01-15T21:01:11.019Z,4.45
2023-01-15T21:03:39.937Z,4.55
2023-01-15T21:06:08.783Z,2.78
2023-01-15T21:08:40.727Z,2.63
2023-01-15T21:11:08.692Z,2.20
2023-01-15T21:13:41.013Z,2.25
2023-01-15T21:16:09.268Z,1.80
2023-01-15T21:18:38.905Z,1.60
2023-01-15T21:21:10.688Z,1.75
2023-01-15T21:23:41.013Z,1.60
2023-01-15T21:26:08.964Z,2.30
2023-01-15T21:28:37.360Z,1.48
2023-01-15T21:31:08.183Z,1.75
2023-01-15T21:33:36.522Z,1.55
2023-01-15T21:36:07.510Z,1.20
2023-01-15T21:38:35.920Z,1.40
2023-01-15T21:41:09.802Z,1.45
2023-01-15T21:43:55.984Z,1.70
2023-01-15T21:46:27.484Z,1.55
2023-01-15T21:48:56.119Z,1.67
2023-01-15T21:51:24.102Z,1.30
2023-01-15T21:53:52.500Z,1.60
2023-01-15T21:56:21.755Z,1.30
2023-01-15T21:58:49.908Z,1.77
2023-01-15T22:01:19.350Z,1.10
2023-01-15T22:03:47.713Z,1.20
2023-01-15T22:06:16.026Z,1.13
2023-01-15T22:08:44.337Z,1.20
2023-01-15T22:11:12.257Z,1.55
2023-01-15T22:13:41.770Z,2.25
2023-01-15T22:16:10.044Z,1.50
2023-01-15T22:18:38.360Z,1.17
2023-01-15T22:21:07.670Z,1.38
2023-01-15T22:23:35.966Z,1.40
2023-01-15T22:26:04.079Z,1.52
2023-01-15T22:28:32.275Z,1.48
2023-01-15T22:31:06.416Z,1.35
2023-01-15T22:33:38.954Z,1.50
2023-01-15T22:36:09.464Z,1.38
2023-01-15T22:38:37.665Z,1.25
2023-01-15T22:41:05.976Z,1.50
2023-01-15T22:43:35.233Z,1.20
2023-01-15T22:46:15.188Z,1.55
2023-01-15T22:48:43.550Z,1.40
2023-01-15T22:51:11.444Z,1.80
2023-01-15T22:53:39.654Z,1.63
2023-01-15T22:56:16.679Z,1.63
2023-01-15T22:58:44.906Z,1.80
2023-01-15T23:01:14.308Z,1.42
2023-01-15T23:03:42.610Z,1.60
2023-01-15T23:06:12.167Z,1.70
2023-01-15T23:08:40.814Z,1.77
2023-01-15T23:11:12.778Z,1.60
2023-01-15T23:16:10.473Z,1.40
2023-01-15T23:18:44.216Z,1.40
2023-01-15T23:21:18.735Z,1.10
2023-01-15T23:23:47.187Z,1.60
2023-01-15T23:26:23.997Z,1.63
2023-01-15T23:28:52.291Z,1.30
2023-01-15T23:31:21.026Z,1.23
2023-01-15T23:33:50.983Z,1.20
2023-01-15T23:36:19.127Z,1.63
2023-01-15T23:38:47.600Z,1.50
2023-01-15T23:41:17.679Z,1.50
2023-01-15T23:44:03.667Z,1.70
2023-01-15T23:46:35.890Z,1.40
2023-01-15T23:49:08.581Z,1.60
2023-01-15T23:54:08.517Z,1.27
2023-01-15T23:56:36.451Z,1.65
2023-01-15T23:59:04.649Z,1.42
